createdAt,value
2019-02-23T00:00:51.565Z,92.40
2019-02-23T00:03:22.658Z,92.50
2019-02-23T00:05:53.395Z,92.90
2019-02-23T00:08:25.536Z,93.10
2019-02-23T00:10:56.293Z,92.80
2019-02-23T00:13:27.551Z,93.10
2019-02-23T00:15:58.545Z,93.30
2019-02-23T00:18:29.769Z,93.60
2019-02-23T00:21:04.184Z,93.60
2019-02-23T00:23:35.220Z,93.40
2019-02-23T00:26:06.263Z,93.40
2019-02-23T00:28:37.403Z,93.60
2019-02-23T00:31:08.614Z,93.70
2019-02-23T00:33:39.784Z,93.80
2019-02-23T00:36:10.871Z,94.00
2019-02-23T00:38:41.881Z,94.20
2019-02-23T00:41:12.808Z,94.20
2019-02-23T00:43:44.943Z,94.20
2019-02-23T00:46:15.996Z,94.50
2019-02-23T00:48:47.277Z,94.50
2019-02-23T00:51:18.315Z,94.30
2019-02-23T00:53:51.693Z,94.20
2019-02-23T00:56:22.569Z,94.20
2019-02-23T00:58:53.475Z,94.40
2019-02-23T01:01:26.811Z,94.40
2019-02-23T01:03:57.782Z,94.40
2019-02-23T01:06:28.941Z,94.10
2019-02-23T01:09:00.088Z,94.10
2019-02-23T01:11:31.162Z,94.00
2019-02-23T01:14:02.389Z,94.30
2019-02-23T01:16:33.521Z,94.20
2019-02-23T01:19:06.411Z,94.30
2019-02-23T01:21:37.611Z,94.30
2019-02-23T01:24:08.876Z,93.90
2019-02-23T01:26:39.848Z,93.90
2019-02-23T01:29:11.010Z,93.90
2019-02-23T01:31:42.086Z,93.90
2019-02-23T01:34:13.334Z,93.60
2019-02-23T01:36:44.564Z,93.60
2019-02-23T01:39:15.558Z,92.80
2019-02-23T01:41:46.612Z,92.00
2019-02-23T01:44:17.473Z,91.60
2019-02-23T01:46:48.435Z,91.20
2019-02-23T01:49:19.624Z,91.10
2019-02-23T01:51:50.879Z,91.20
2019-02-23T01:54:21.911Z,91.20
2019-02-23T01:56:53.440Z,91.40
2019-02-23T01:59:25.061Z,91.30
2019-02-23T02:01:56.010Z,91.10
2019-02-23T02:04:28.221Z,91.00
2019-02-23T02:06:59.204Z,91.20
2019-02-23T02:09:30.463Z,91.30
2019-02-23T02:12:01.235Z,91.50
2019-02-23T02:14:32.249Z,91.20
2019-02-23T02:17:03.211Z,90.60
2019-02-23T02:19:34.296Z,90.10
2019-02-23T02:22:05.259Z,90.20
2019-02-23T02:24:36.238Z,91.20
2019-02-23T02:27:07.296Z,92.00
2019-02-23T02:29:38.419Z,92.30
2019-02-23T02:32:10.022Z,92.60
2019-02-23T02:34:41.510Z,93.00
2019-02-23T02:37:12.659Z,93.40
2019-02-23T02:39:43.608Z,93.50
2019-02-23T02:42:15.865Z,94.10
2019-02-23T02:44:46.980Z,93.80
2019-02-23T02:47:18.070Z,93.70
2019-02-23T02:49:49.099Z,93.60
2019-02-23T02:52:20.307Z,93.70
2019-02-23T02:54:51.256Z,93.50
2019-02-23T02:57:21.977Z,93.60
2019-02-23T02:59:53.366Z,93.60
2019-02-23T03:02:24.374Z,93.20
2019-02-23T03:04:55.126Z,92.40
2019-02-23T03:07:26.471Z,92.00
2019-02-23T03:09:58.072Z,91.30
2019-02-23T03:12:29.321Z,90.90
2019-02-23T03:15:00.057Z,91.00
2019-02-23T03:17:30.938Z,90.70
2019-02-23T03:20:01.784Z,90.60
2019-02-23T03:22:35.977Z,90.60
2019-02-23T03:25:07.249Z,90.80
2019-02-23T03:27:38.318Z,91.00
2019-02-23T03:30:10.642Z,91.10
2019-02-23T03:32:41.716Z,91.50
2019-02-23T03:35:12.831Z,91.60
2019-02-23T03:37:43.857Z,91.70
2019-02-23T03:40:14.949Z,91.70
2019-02-23T03:42:45.834Z,91.80
2019-02-23T03:45:16.943Z,92.00
2019-02-23T03:47:48.194Z,92.10
2019-02-23T03:50:20.447Z,92.10
2019-02-23T03:52:51.557Z,92.20
2019-02-23T03:55:22.585Z,92.50
2019-02-23T03:57:53.755Z,92.60
2019-02-23T04:00:29.685Z,92.70
2019-02-23T04:03:00.652Z,92.80
2019-02-23T04:05:32.023Z,93.00
2019-02-23T04:08:02.732Z,93.00
2019-02-23T04:10:33.955Z,93.40
2019-02-23T04:13:05.014Z,93.60
2019-02-23T04:15:36.348Z,93.90
2019-02-23T04:18:07.387Z,94.10
2019-02-23T04:20:38.655Z,94.30
2019-02-23T04:23:09.599Z,94.50
2019-02-23T04:25:40.609Z,94.70
2019-02-23T04:28:11.668Z,94.60
2019-02-23T04:30:48.956Z,94.80
2019-02-23T04:33:20.374Z,95.00
2019-02-23T04:35:51.746Z,95.10
2019-02-23T04:38:22.871Z,95.30
2019-02-23T04:40:53.913Z,95.60
2019-02-23T04:43:25.117Z,96.20
2019-02-23T04:45:55.802Z,96.40
2019-02-23T04:48:26.910Z,96.40
2019-02-23T04:50:58.189Z,96.50
2019-02-23T04:53:29.306Z,96.70
2019-02-23T04:56:00.200Z,97.00
2019-02-23T04:58:31.124Z,97.20
2019-02-23T05:01:02.467Z,97.30
2019-02-23T05:03:33.395Z,97.50
2019-02-23T05:06:04.622Z,97.60
2019-02-23T05:08:35.782Z,97.80
2019-02-23T05:11:07.135Z,98.00
2019-02-23T05:13:41.926Z,97.90
2019-02-23T05:16:13.406Z,98.00
2019-02-23T05:18:44.640Z,97.90
2019-02-23T05:21:25.964Z,97.90
2019-02-23T05:23:48.235Z,98.00
2019-02-23T05:26:19.415Z,98.20
2019-02-23T05:28:50.563Z,98.00
2019-02-23T05:31:22.305Z,98.10
2019-02-23T05:33:53.743Z,98.30
2019-02-23T05:36:24.922Z,98.20
2019-02-23T05:38:56.149Z,98.40
2019-02-23T05:41:27.338Z,98.50
2019-02-23T05:43:58.404Z,98.50
2019-02-23T05:46:29.592Z,98.60
2019-02-23T05:49:00.187Z,98.80
2019-02-23T05:51:38.610Z,98.90
2019-02-23T05:54:03.693Z,99.10
2019-02-23T05:56:34.880Z,99.10
2019-02-23T05:59:06.006Z,99.20
2019-02-23T06:01:37.112Z,99.50
2019-02-23T06:04:08.074Z,99.40
2019-02-23T06:06:38.979Z,99.60
2019-02-23T06:09:09.967Z,99.70
2019-02-23T06:11:41.146Z,99.90
2019-02-23T06:14:12.336Z,99.90
2019-02-23T06:16:43.559Z,99.90
2019-02-23T06:19:14.548Z,99.80
2019-02-23T06:21:53.790Z,99.90
2019-02-23T06:24:22.053Z,99.90
2019-02-23T06:26:53.952Z,99.90
2019-02-23T06:29:25.834Z,99.90
2019-02-23T06:31:56.624Z,99.90
2019-02-23T06:34:27.648Z,99.90
2019-02-23T06:36:58.693Z,99.90
2019-02-23T06:39:29.711Z,99.90
2019-02-23T06:42:00.807Z,99.90
2019-02-23T06:44:31.987Z,99.90
2019-02-23T06:47:05.470Z,99.90
2019-02-23T06:49:36.417Z,99.90
2019-02-23T06:52:08.285Z,99.90
2019-02-23T06:54:39.332Z,99.90
2019-02-23T06:57:10.559Z,99.90
2019-02-23T06:59:41.614Z,99.90
2019-02-23T07:02:13.356Z,99.90
2019-02-23T07:04:44.501Z,99.90
2019-02-23T07:07:16.370Z,99.90
2019-02-23T07:09:47.449Z,99.90
2019-02-23T07:12:19.337Z,99.90
2019-02-23T07:14:50.639Z,99.90
2019-02-23T07:17:21.905Z,99.90
2019-02-23T07:19:56.287Z,99.90
2019-02-23T07:22:28.594Z,99.90
2019-02-23T07:25:00.329Z,99.90
2019-02-23T07:27:32.045Z,99.90
2019-02-23T07:30:03.689Z,99.90
2019-02-23T07:32:35.434Z,99.90
2019-02-23T07:35:06.917Z,99.90
2019-02-23T07:37:38.749Z,99.90
2019-02-23T07:40:10.478Z,99.90
2019-02-23T07:42:41.557Z,99.90
2019-02-23T07:45:12.860Z,99.90
2019-02-23T07:47:44.061Z,98.90
2019-02-23T07:50:15.268Z,96.20
2019-02-23T07:52:46.926Z,94.40
2019-02-23T07:55:18.319Z,93.50
2019-02-23T07:57:49.502Z,93.10
2019-02-23T08:00:20.564Z,93.40
2019-02-23T08:02:51.644Z,94.10
2019-02-23T08:05:22.926Z,94.50
2019-02-23T08:07:54.350Z,94.90
2019-02-23T08:10:25.339Z,95.00
2019-02-23T08:12:56.429Z,95.10
2019-02-23T08:15:27.487Z,95.40
2019-02-23T08:17:58.796Z,95.00
2019-02-23T08:20:32.150Z,94.70
2019-02-23T08:23:03.381Z,94.60
2019-02-23T08:25:34.524Z,94.50
2019-02-23T08:28:05.967Z,94.40
2019-02-23T08:30:37.116Z,94.20
2019-02-23T08:33:08.576Z,94.10
2019-02-23T08:35:39.615Z,94.10
2019-02-23T08:38:10.722Z,93.90
2019-02-23T08:40:41.706Z,93.80
2019-02-23T08:43:12.909Z,93.80
2019-02-23T08:45:44.229Z,93.70
2019-02-23T08:48:15.425Z,93.50
2019-02-23T08:50:46.475Z,93.40
2019-02-23T08:53:17.950Z,92.90
2019-02-23T08:55:49.402Z,93.50
2019-02-23T08:58:20.572Z,93.00
2019-02-23T09:00:51.671Z,92.80
2019-02-23T09:03:22.789Z,92.90
2019-02-23T09:05:54.616Z,92.40
2019-02-23T09:08:25.791Z,92.40
2019-02-23T09:10:56.448Z,91.90
2019-02-23T09:13:27.561Z,92.20
2019-02-23T09:15:58.306Z,92.30
2019-02-23T09:18:29.671Z,92.00
2019-02-23T09:21:00.590Z,91.90
2019-02-23T09:23:31.902Z,91.70
2019-02-23T09:26:07.194Z,91.70
2019-02-23T09:28:38.184Z,91.70
2019-02-23T09:31:09.499Z,92.40
2019-02-23T09:33:40.517Z,92.00
2019-02-23T09:36:11.817Z,92.10
2019-02-23T09:38:42.940Z,91.70
2019-02-23T09:41:15.193Z,91.40
2019-02-23T09:43:46.224Z,91.40
2019-02-23T09:46:18.514Z,91.00
2019-02-23T09:48:49.641Z,90.90
2019-02-23T09:51:20.653Z,90.90
2019-02-23T09:53:51.759Z,90.90
2019-02-23T09:56:24.215Z,90.90
2019-02-23T09:58:55.078Z,90.70
2019-02-23T10:01:26.560Z,90.50
2019-02-23T10:03:57.669Z,90.50
2019-02-23T10:06:28.847Z,90.70
2019-02-23T10:09:00.705Z,90.80
2019-02-23T10:11:33.559Z,90.90
2019-02-23T10:14:07.276Z,91.30
2019-02-23T10:16:37.772Z,90.90
2019-02-23T10:19:09.100Z,90.70
2019-02-23T10:21:40.458Z,90.30
2019-02-23T10:24:11.869Z,90.20
2019-02-23T10:26:43.226Z,90.10
2019-02-23T10:29:14.556Z,90.20
2019-02-23T10:31:45.928Z,90.10
2019-02-23T10:34:17.174Z,90.10
2019-02-23T10:36:48.222Z,90.00
2019-02-23T10:39:19.453Z,89.60
2019-02-23T10:41:50.542Z,88.40
2019-02-23T10:44:21.949Z,89.00
2019-02-23T10:46:53.185Z,88.80
2019-02-23T10:49:24.452Z,89.40
2019-02-23T10:51:56.414Z,89.50
2019-02-23T10:54:27.979Z,89.70
2019-02-23T10:56:58.897Z,89.00
2019-02-23T10:59:29.953Z,89.10
2019-02-23T11:02:00.886Z,88.80
2019-02-23T11:04:32.121Z,88.30
2019-02-23T11:07:02.816Z,88.10
2019-02-23T11:09:38.126Z,88.00
2019-02-23T11:12:09.347Z,86.50
2019-02-23T11:14:40.919Z,85.70
2019-02-23T11:17:11.860Z,85.70
2019-02-23T11:19:43.230Z,85.30
2019-02-23T11:22:14.568Z,85.90
2019-02-23T11:24:45.822Z,84.90
2019-02-23T11:27:17.189Z,85.30
2019-02-23T11:29:48.541Z,84.50
2019-02-23T11:32:19.679Z,84.40
2019-02-23T11:34:51.090Z,83.80
2019-02-23T11:37:22.409Z,82.20
2019-02-23T11:39:55.781Z,80.70
2019-02-23T11:42:26.987Z,80.30
2019-02-23T11:44:58.329Z,80.70
2019-02-23T11:47:29.511Z,82.20
2019-02-23T11:50:00.409Z,82.90
2019-02-23T11:52:31.599Z,82.60
2019-02-23T11:55:02.644Z,83.40
2019-02-23T11:57:33.647Z,82.80
2019-02-23T12:00:05.067Z,83.40
2019-02-23T12:02:37.622Z,83.60
2019-02-23T12:05:09.377Z,82.70
2019-02-23T12:07:40.621Z,83.40
2019-02-23T12:10:17.590Z,83.20
2019-02-23T12:12:48.837Z,83.90
2019-02-23T12:15:19.952Z,83.40
2019-02-23T12:17:51.048Z,84.80
2019-02-23T12:20:22.305Z,84.30
2019-02-23T12:22:53.971Z,82.90
2019-02-23T12:25:25.371Z,81.80
2019-02-23T12:27:56.496Z,81.50
2019-02-23T12:30:27.472Z,78.40
2019-02-23T12:32:58.816Z,78.30
2019-02-23T12:35:30.268Z,77.20
2019-02-23T12:38:01.925Z,71.80
2019-02-23T12:40:33.278Z,70.00
2019-02-23T12:43:08.349Z,69.70
2019-02-23T12:45:46.417Z,70.60
2019-02-23T12:48:18.168Z,72.30
2019-02-23T12:50:49.212Z,71.10
2019-02-23T12:53:20.365Z,70.20
2019-02-23T12:55:51.677Z,70.30
2019-02-23T12:58:23.164Z,70.20
2019-02-23T13:00:55.327Z,68.60
2019-02-23T13:03:26.399Z,67.70
2019-02-23T13:05:57.625Z,70.60
2019-02-23T13:08:51.491Z,70.40
2019-02-23T13:11:22.764Z,70.00
2019-02-23T13:14:40.604Z,70.60
2019-02-23T13:17:54.509Z,70.80
2019-02-23T13:21:13.691Z,71.70
2019-02-23T13:24:14.213Z,72.50
2019-02-23T13:27:26.801Z,71.40
2019-02-23T13:30:27.361Z,70.80
2019-02-23T13:33:37.937Z,70.30
2019-02-23T13:36:47.389Z,67.20
2019-02-23T13:39:50.088Z,64.40
2019-02-23T13:43:13.863Z,61.10
2019-02-23T13:46:24.859Z,59.40
2019-02-23T13:53:32.623Z,58.40
2019-02-23T13:56:40.137Z,55.00
2019-02-23T13:59:56.693Z,52.90
2019-02-23T14:03:14.709Z,52.20
2019-02-23T14:06:12.128Z,52.20
2019-02-23T14:09:27.024Z,51.90
2019-02-23T14:12:26.373Z,53.80
2019-02-23T14:15:36.168Z,63.50
2019-02-23T14:18:22.660Z,67.30
2019-02-23T14:21:09.850Z,70.60
2019-02-23T14:24:27.767Z,74.10
2019-02-23T14:27:21.260Z,76.70
2019-02-23T14:30:45.855Z,79.00
2019-02-23T14:34:08.152Z,80.40
2019-02-23T14:36:56.423Z,81.90
2019-02-23T14:40:16.040Z,84.90
2019-02-23T14:43:38.713Z,87.50
2019-02-23T14:46:56.233Z,90.40
2019-02-23T14:49:55.612Z,91.80
2019-02-23T14:52:42.334Z,93.80
2019-02-23T14:55:42.913Z,95.90
2019-02-23T14:58:57.757Z,97.30
2019-02-23T15:01:37.121Z,99.10
2019-02-23T15:04:57.967Z,99.90
2019-02-23T15:07:49.756Z,99.90
2019-02-23T15:18:54.915Z,99.90
2019-02-23T15:22:09.153Z,99.90
2019-02-23T15:25:12.487Z,99.90
2019-02-23T15:28:24.864Z,99.90
2019-02-23T15:31:09.944Z,99.70
2019-02-23T15:34:09.237Z,99.20
2019-02-23T15:37:29.685Z,98.00
2019-02-23T15:40:37.396Z,96.80
2019-02-23T15:43:30.576Z,95.70
2019-02-23T15:46:38.078Z,93.50
2019-02-23T15:49:34.390Z,93.70
2019-02-23T15:52:09.105Z,94.50
2019-02-23T15:54:40.139Z,93.80
2019-02-23T15:57:11.262Z,94.40
2019-02-23T15:59:44.445Z,94.10
2019-02-23T16:02:15.573Z,95.40
2019-02-23T16:04:46.926Z,98.40
2019-02-23T16:07:18.470Z,99.50
2019-02-23T16:09:49.806Z,99.60
2019-02-23T16:12:21.221Z,99.90
2019-02-23T16:14:52.562Z,99.90
2019-02-23T16:17:23.637Z,99.90
2019-02-23T16:19:55.567Z,99.90
2019-02-23T16:22:26.818Z,99.90
2019-02-23T16:24:57.685Z,99.90
2019-02-23T16:27:28.850Z,99.90
2019-02-23T16:29:59.499Z,99.90
2019-02-23T16:32:31.466Z,99.90
2019-02-23T16:35:02.326Z,99.90
2019-02-23T16:37:33.469Z,99.90
2019-02-23T16:40:05.448Z,99.90
2019-02-23T16:42:37.013Z,99.90
2019-02-23T16:45:08.475Z,99.90
2019-02-23T16:47:40.199Z,99.90
2019-02-23T16:50:11.524Z,99.90
2019-02-23T16:52:42.336Z,99.90
2019-02-23T16:55:14.027Z,99.90
2019-02-23T16:57:44.814Z,99.90
2019-02-23T17:00:16.271Z,99.90
2019-02-23T17:02:50.100Z,99.90
2019-02-23T17:05:21.977Z,99.90
2019-02-23T17:07:53.971Z,99.90
2019-02-23T17:10:25.323Z,99.90
2019-02-23T17:12:56.255Z,99.90
2019-02-23T17:15:27.371Z,99.90
2019-02-23T17:17:58.535Z,99.90
2019-02-23T17:20:30.025Z,99.90
2019-02-23T17:23:02.130Z,99.90
2019-02-23T17:25:33.472Z,99.90
2019-02-23T17:28:07.690Z,99.90
2019-02-23T17:30:39.473Z,99.90
2019-02-23T17:33:11.746Z,99.90
2019-02-23T17:35:43.173Z,99.90
2019-02-23T17:38:16.809Z,99.90
2019-02-23T17:40:47.320Z,99.90
2019-02-23T17:43:18.851Z,99.90
2019-02-23T17:45:49.982Z,99.90
2019-02-23T17:48:21.309Z,99.90
2019-02-23T17:50:52.550Z,99.90
2019-02-23T17:53:23.595Z,99.90
2019-02-23T17:55:55.092Z,99.90
2019-02-23T17:58:26.340Z,99.90
2019-02-23T18:00:57.803Z,99.90
2019-02-23T18:03:28.908Z,99.90
2019-02-23T18:06:00.267Z,99.90
2019-02-23T18:08:33.777Z,99.90
2019-02-23T18:11:04.744Z,99.90
2019-02-23T18:13:36.374Z,99.90
2019-02-23T18:16:07.609Z,99.90
2019-02-23T18:18:38.861Z,99.90
2019-02-23T18:21:10.203Z,99.90
2019-02-23T18:23:41.433Z,99.90
2019-02-23T18:26:21.110Z,99.90
2019-02-23T18:28:51.740Z,99.90
2019-02-23T18:31:23.165Z,99.90
2019-02-23T18:33:57.727Z,99.90
2019-02-23T18:36:30.071Z,99.90
2019-02-23T18:39:00.866Z,99.90
2019-02-23T18:41:33.626Z,99.90
2019-02-23T18:44:05.938Z,99.90
2019-02-23T18:46:37.038Z,99.90
2019-02-23T18:49:08.469Z,99.90
2019-02-23T18:51:39.739Z,99.90
2019-02-23T18:54:10.985Z,99.90
2019-02-23T18:56:42.236Z,99.90
2019-02-23T18:59:13.280Z,99.90
2019-02-23T19:01:44.833Z,99.90
2019-02-23T19:04:17.397Z,99.90
2019-02-23T19:06:48.761Z,99.90
2019-02-23T19:09:20.031Z,99.90
2019-02-23T19:11:51.602Z,99.90
2019-02-23T19:14:22.738Z,99.90
2019-02-23T19:16:54.164Z,99.90
2019-02-23T19:19:25.452Z,99.90
2019-02-23T19:21:56.642Z,99.90
2019-02-23T19:24:28.029Z,99.90
2019-02-23T19:26:58.751Z,99.90
2019-02-23T19:29:29.787Z,99.90
2019-02-23T19:32:00.623Z,99.90
2019-02-23T19:34:31.787Z,99.90
2019-02-23T19:37:02.881Z,99.90
2019-02-23T19:39:33.975Z,99.90
2019-02-23T19:42:05.306Z,99.90
2019-02-23T19:44:36.312Z,99.90
2019-02-23T19:47:16.313Z,99.90
2019-02-23T19:49:52.484Z,99.90
2019-02-23T19:52:23.721Z,99.90
2019-02-23T19:54:56.301Z,99.90
2019-02-23T19:57:27.500Z,99.90
2019-02-23T19:59:58.154Z,99.90
2019-02-23T20:02:29.302Z,99.90
2019-02-23T20:05:00.441Z,99.90
2019-02-23T20:07:32.800Z,99.90
2019-02-23T20:10:03.521Z,99.90
2019-02-23T20:12:34.560Z,99.90
2019-02-23T20:15:06.284Z,99.90
2019-02-23T20:17:37.626Z,99.90
2019-02-23T20:20:10.173Z,99.90
2019-02-23T20:22:41.318Z,99.90
2019-02-23T20:25:12.426Z,99.90
2019-02-23T20:27:43.591Z,99.90
2019-02-23T20:30:14.883Z,99.90
2019-02-23T20:32:49.385Z,99.90
2019-02-23T20:35:22.326Z,99.90
2019-02-23T20:37:53.600Z,99.90
2019-02-23T20:40:25.732Z,99.90
2019-02-23T20:42:56.673Z,99.90
2019-02-23T20:45:28.811Z,99.90
2019-02-23T20:47:59.487Z,99.90
2019-02-23T20:50:30.727Z,99.90
2019-02-23T20:53:01.534Z,99.90
2019-02-23T20:55:32.730Z,99.90
2019-02-23T20:58:03.508Z,99.90
2019-02-23T21:00:34.547Z,99.90
2019-02-23T21:03:05.716Z,99.90
2019-02-23T21:05:36.652Z,99.90
2019-02-23T21:08:07.380Z,99.90
2019-02-23T21:10:38.492Z,99.90
2019-02-23T21:13:09.866Z,99.90
2019-02-23T21:15:40.948Z,99.90
2019-02-23T21:18:12.299Z,99.90
2019-02-23T21:20:43.406Z,99.90
2019-02-23T21:23:14.589Z,99.90
2019-02-23T21:25:45.534Z,99.90
2019-02-23T21:28:16.653Z,99.90
2019-02-23T21:30:48.797Z,99.90
2019-02-23T21:33:19.878Z,99.90
2019-02-23T21:35:54.571Z,99.90
2019-02-23T21:38:25.939Z,99.90
2019-02-23T21:40:56.842Z,99.90
2019-02-23T21:43:28.115Z,99.90
2019-02-23T21:45:58.962Z,99.90
2019-02-23T21:48:30.176Z,99.90
2019-02-23T21:51:01.631Z,99.90
2019-02-23T21:53:34.160Z,99.90
2019-02-23T21:56:06.273Z,99.90
2019-02-23T21:58:37.482Z,99.90
2019-02-23T22:01:08.645Z,99.90
2019-02-23T22:03:39.869Z,99.90
2019-02-23T22:06:11.053Z,99.90
2019-02-23T22:08:42.253Z,99.90
2019-02-23T22:11:13.834Z,99.90
2019-02-23T22:13:45.281Z,99.90
2019-02-23T22:16:16.411Z,99.90
2019-02-23T22:18:47.618Z,99.90
2019-02-23T22:21:20.176Z,99.90
2019-02-23T22:23:51.761Z,99.90
2019-02-23T22:26:22.839Z,99.90
2019-02-23T22:28:54.081Z,99.90
2019-02-23T22:31:25.342Z,99.90
2019-02-23T22:33:56.798Z,99.90
2019-02-23T22:36:27.853Z,99.90
2019-02-23T22:38:58.587Z,99.90
2019-02-23T22:41:29.585Z,99.90
2019-02-23T22:44:00.794Z,99.90
2019-02-23T22:46:31.986Z,99.90
2019-02-23T22:49:03.285Z,99.90
2019-02-23T22:51:34.830Z,99.90
2019-02-23T22:54:05.813Z,99.90
2019-02-23T22:56:36.827Z,99.90
2019-02-23T22:59:12.037Z,99.90
2019-02-23T23:01:44.410Z,99.90
2019-02-23T23:04:15.637Z,99.90
2019-02-23T23:06:46.857Z,99.90
2019-02-23T23:09:19.676Z,99.90
2019-02-23T23:11:50.696Z,99.90
2019-02-23T23:14:21.815Z,99.90
2019-02-23T23:16:54.521Z,99.90
2019-02-23T23:19:25.662Z,99.90
2019-02-23T23:21:56.659Z,99.90
2019-02-23T23:24:27.705Z,99.90
2019-02-23T23:26:58.771Z,99.90
2019-02-23T23:29:29.725Z,99.90
2019-02-23T23:32:00.966Z,99.90
2019-02-23T23:34:32.105Z,99.90
2019-02-23T23:37:02.833Z,99.90
2019-02-23T23:39:33.996Z,99.90
2019-02-23T23:42:06.539Z,99.90
2019-02-23T23:44:37.662Z,99.90
2019-02-23T23:47:08.279Z,99.90
2019-02-23T23:49:39.906Z,99.90
2019-02-23T23:52:10.935Z,99.90
2019-02-23T23:54:42.427Z,99.90
2019-02-23T23:57:13.303Z,99.90
2019-02-23T23:59:44.320Z,99.90
